Lapaz — YM3280 — position and weather

sailwx.info

Track history (hours):
 
Tides and Currents Weather Stations Pressure Air Temp Water Temp Dewpoint Dewpoint Depression Visibility Wind Speed Wind Dir Waves Ship Positions

Lapaz

Last reported at 2018-May-15 09:45 UTC. Time now 2018-Jun-22 07:41 UTC.
Position N 36°29' E 030°32'.
Warning: this ship's position is 37 days out of date.

Length 20 m.

Type: Passenger vessel. MMSI: 271042732.

Date/timePositionNaut miles runAvg speedWind from/ knotsBaromVisibWave heightAir tempDewpointWater temp
2018-May-15 09:45N 36°29' E 030°32'1 0.7
2018-May-15 08:06N 36°28' E 030°31'1 5.0
2018-May-15 08:00N 36°28' E 030°32'9 3.4
2018-May-15 05:27N 36°36' E 030°36'1 0.1
2018-May-14 11:55N 36°36' E 030°34'1 2.9
2018-May-14 11:25N 36°35' E 030°35'3 5.8
2018-May-14 10:57N 36°32' E 030°34'  
2018-May-12 05:38N 36°36' E 030°36'1 4.8
2018-May-12 05:30N 36°36' E 030°35'1 0.0
2018-May-11 13:40N 36°36' E 030°34'0 0.2
2018-May-11 13:30N 36°36' E 030°34'1 1.2
2018-May-11 12:59N 36°36' E 030°35'1 1.9
2018-May-11 12:21N 36°35' E 030°35'2 5.4
2018-May-11 12:00N 36°33' E 030°34'1 1.4
2018-May-11 11:12N 36°32' E 030°34'3 0.9
2018-May-11 07:32N 36°35' E 030°36'0 5.7
2018-May-11 07:27N 36°35' E 030°36'1 0.1
2018-May-10 16:16N 36°36' E 030°34'0 0.5
2018-May-10 16:00N 36°36' E 030°34'2 3.6
2018-May-10 15:30N 36°34' E 030°35'3 5.6
2018-May-10 14:59N 36°32' E 030°34'4 0.8
2018-May-10 09:44N 36°28' E 030°31'8 1.8
2018-May-10 05:19N 36°35' E 030°36'1 4.4
2018-May-10 05:00N 36°36' E 030°35'0 0.0
2018-May-08 13:30N 36°36' E 030°34'0 0.2
2018-May-08 13:00N 36°36' E 030°34'2 3.4
2018-May-08 12:30N 36°35' E 030°35'3 5.4
2018-May-08 12:00N 36°32' E 030°34'1 0.1
2018-May-08 06:02N 36°33' E 030°35'3 5.6
2018-May-08 05:35N 36°35' E 030°36'1 5.6
2018-May-08 05:29N 36°36' E 030°36'  
2018-May-05 14:27N 36°36' E 030°34'1 1.2
2018-May-05 14:00N 36°36' E 030°35'2 4.1
2018-May-05 13:30N 36°34' E 030°35'  
Track history (hours):
 
Tides and Currents Weather Stations Pressure Air Temp Water Temp Dewpoint Dewpoint Depression Visibility Wind Speed Wind Dir Waves Ship Positions

Lapaz

Last reported at 2018-May-15 09:45 UTC. Time now 2018-Jun-22 07:41 UTC.
Position N 36°29' E 030°32'.
Warning: this ship's position is 37 days out of date.

Length 20 m.

Type: Passenger vessel. MMSI: 271042732.

Date/timePositionNaut miles runAvg speedWind from/ knotsBaromVisibWave heightAir tempDewpointWater temp
2018-May-15 09:45N 36°29' E 030°32'1 0.7
2018-May-15 08:06N 36°28' E 030°31'1 5.0
2018-May-15 08:00N 36°28' E 030°32'9 3.4
2018-May-15 05:27N 36°36' E 030°36'1 0.1
2018-May-14 11:55N 36°36' E 030°34'1 2.9
2018-May-14 11:25N 36°35' E 030°35'3 5.8
2018-May-14 10:57N 36°32' E 030°34'  
2018-May-12 05:38N 36°36' E 030°36'1 4.8
2018-May-12 05:30N 36°36' E 030°35'1 0.0
2018-May-11 13:40N 36°36' E 030°34'0 0.2
2018-May-11 13:30N 36°36' E 030°34'1 1.2
2018-May-11 12:59N 36°36' E 030°35'1 1.9
2018-May-11 12:21N 36°35' E 030°35'2 5.4
2018-May-11 12:00N 36°33' E 030°34'1 1.4
2018-May-11 11:12N 36°32' E 030°34'3 0.9
2018-May-11 07:32N 36°35' E 030°36'0 5.7
2018-May-11 07:27N 36°35' E 030°36'1 0.1
2018-May-10 16:16N 36°36' E 030°34'0 0.5
2018-May-10 16:00N 36°36' E 030°34'2 3.6
2018-May-10 15:30N 36°34' E 030°35'3 5.6
2018-May-10 14:59N 36°32' E 030°34'4 0.8
2018-May-10 09:44N 36°28' E 030°31'8 1.8
2018-May-10 05:19N 36°35' E 030°36'1 4.4
2018-May-10 05:00N 36°36' E 030°35'0 0.0
2018-May-08 13:30N 36°36' E 030°34'0 0.2
2018-May-08 13:00N 36°36' E 030°34'2 3.4
2018-May-08 12:30N 36°35' E 030°35'3 5.4
2018-May-08 12:00N 36°32' E 030°34'1 0.1
2018-May-08 06:02N 36°33' E 030°35'3 5.6
2018-May-08 05:35N 36°35' E 030°36'1 5.6
2018-May-08 05:29N 36°36' E 030°36'  
2018-May-05 14:27N 36°36' E 030°34'1 1.2
2018-May-05 14:00N 36°36' E 030°35'2 4.1
2018-May-05 13:30N 36°34' E 030°35'  

Dump ship's entire track history